Time;durP1;ratioP1;P1;durP2;ratioP2;P2;SDS_P1;SDS_P2;PMS_P1;PMS_P2;Temp;Humidity;BMP_temperature;BMP_pressure;BME280_temperature;BME280_humidity;BME280_pressure;Samples;Min_cycle;Max_cycle;Signal;HPM_P1;HPM_P2
2021/01/30 00:00:44;;;;;;;63.93;35.60;;;;;;;-0.28;76.63;99028.78;121697;1141;104349;-77
2021/01/30 00:03:15;;;;;;;77.10;41.83;;;;;;;-0.26;76.80;99036.60;121691;1141;104410;-77
2021/01/30 00:05:44;;;;;;;78.83;41.03;;;;;;;-0.28;76.19;99030.45;121698;1141;104465;-78
2021/01/30 00:08:16;;;;;;;88.30;47.95;;;;;;;-0.29;76.52;99031.28;121718;1141;104466;-78
2021/01/30 00:10:44;;;;;;;95.40;49.40;;;;;;;-0.31;76.35;99035.44;121687;1141;104351;-77
2021/01/30 00:13:14;;;;;;;80.77;45.77;;;;;;;-0.29;76.77;99042.47;121682;1141;104456;-78
2021/01/30 00:15:44;;;;;;;79.17;44.33;;;;;;;-0.24;77.00;99040.14;121378;1141;104369;-78
2021/01/30 00:18:13;;;;;;;85.80;46.17;;;;;;;-0.21;77.37;99041.19;121674;1141;104368;-77
2021/01/30 00:20:42;;;;;;;93.70;50.47;;;;;;;-0.19;77.03;99033.53;121690;1141;104420;-78
2021/01/30 00:23:11;;;;;;;88.67;47.67;;;;;;;-0.20;77.18;99035.23;121684;1141;104348;-78
2021/01/30 00:25:40;;;;;;;95.33;51.13;;;;;;;-0.21;77.40;99030.88;121689;1141;104362;-77
2021/01/30 00:28:12;;;;;;;89.50;48.43;;;;;;;-0.20;77.39;99027.50;121704;1140;104336;-77
2021/01/30 00:30:41;;;;;;;93.27;49.13;;;;;;;-0.17;76.91;99028.47;121693;1141;104364;-77
2021/01/30 00:33:10;;;;;;;87.53;47.30;;;;;;;-0.14;76.96;99029.54;121721;1141;104467;-77
2021/01/30 00:35:42;;;;;;;88.80;48.10;;;;;;;-0.11;77.50;99021.97;121719;1141;104509;-78
2021/01/30 00:38:11;;;;;;;94.13;50.20;;;;;;;-0.11;76.94;99011.66;121679;1141;104364;-78
2021/01/30 00:40:40;;;;;;;87.67;48.63;;;;;;;-0.07;77.29;99015.28;121730;1140;104348;-77
2021/01/30 00:43:09;;;;;;;93.63;47.53;;;;;;;-0.08;77.51;99010.91;121711;1141;104339;-77
2021/01/30 00:45:37;;;;;;;87.77;47.57;;;;;;;-0.09;77.27;99017.77;121743;1141;104502;-77
2021/01/30 00:48:07;;;;;;;91.07;47.30;;;;;;;-0.05;77.06;99016.23;121700;1140;104455;-78
2021/01/30 00:50:36;;;;;;;85.20;43.87;;;;;;;-0.02;77.44;99009.58;121691;1140;104452;-77
2021/01/30 00:53:05;;;;;;;80.10;43.27;;;;;;;-0.01;77.61;99003.59;121706;1141;104450;-78
2021/01/30 00:55:42;;;;;;;82.27;40.60;;;;;;;-0.02;77.26;98998.35;121698;1140;104339;-77
2021/01/30 00:58:11;;;;;;;85.37;45.17;;;;;;;-0.04;77.31;99000.84;121743;1140;102965;-78
2021/01/30 01:00:40;;;;;;;82.97;41.30;;;;;;;-0.07;77.42;99000.69;121716;1140;104400;-78
2021/01/30 01:03:13;;;;;;;89.77;45.90;;;;;;;-0.08;77.41;98992.86;121687;1141;104829;-78
2021/01/30 01:05:49;;;;;;;85.55;42.70;;;;;;;-0.05;77.87;98993.03;121711;1141;104341;-79
2021/01/30 01:08:17;;;;;;;85.63;42.63;;;;;;;-0.02;77.56;98990.61;121729;1141;104338;-77
2021/01/30 01:10:47;;;;;;;79.07;40.13;;;;;;;-0.02;77.58;98978.63;121722;1140;104329;-77
2021/01/30 01:13:16;;;;;;;75.57;39.27;;;;;;;-0.02;77.81;98985.45;121702;1140;104500;-78
2021/01/30 01:15:45;;;;;;;66.40;32.37;;;;;;;0.00;77.55;98989.03;121661;1141;104455;-78
2021/01/30 01:18:15;;;;;;;73.90;38.60;;;;;;;0.01;77.61;98984.75;121747;1140;104375;-77
2021/01/30 01:20:44;;;;;;;74.23;38.07;;;;;;;-0.01;77.58;98989.82;121693;1141;104216;-78
2021/01/30 01:23:13;;;;;;;78.37;40.93;;;;;;;-0.02;77.57;98983.78;121730;1141;104404;-78
2021/01/30 01:25:42;;;;;;;82.47;40.60;;;;;;;0.01;78.08;98998.52;121764;1141;104489;-78
2021/01/30 01:28:11;;;;;;;76.13;37.30;;;;;;;0.05;78.36;98992.73;121668;1141;104356;-78
2021/01/30 01:30:40;;;;;;;69.50;35.77;;;;;;;0.09;78.27;98986.03;121602;1141;104345;-78
2021/01/30 01:33:09;;;;;;;72.43;36.37;;;;;;;0.12;77.67;98987.06;121719;1141;104467;-79
2021/01/30 01:35:38;;;;;;;63.73;33.37;;;;;;;0.14;77.79;98974.25;121723;1140;104340;-79
2021/01/30 01:38:07;;;;;;;68.30;35.20;;;;;;;0.12;78.06;98970.71;121717;1140;104480;-79
2021/01/30 01:40:39;;;;;;;70.17;35.13;;;;;;;0.13;78.51;98963.05;121673;1140;104430;-78
2021/01/30 01:43:13;;;;;;;73.27;36.53;;;;;;;0.14;78.34;98958.77;121739;1141;104326;-78
2021/01/30 01:45:43;;;;;;;71.33;32.87;;;;;;;0.12;78.22;98950.08;121760;1140;104345;-78
2021/01/30 01:48:24;;;;;;;52.03;24.27;;;;;;;0.08;78.64;98948.13;121745;1140;104404;-78
2021/01/30 01:50:54;;;;;;;55.90;28.57;;;;;;;-0.02;78.14;98952.84;121745;1141;104355;-79
2021/01/30 01:53:27;;;;;;;56.17;28.73;;;;;;;0.00;78.86;98945.19;121699;1140;104348;-80
2021/01/30 01:55:59;;;;;;;54.63;27.37;;;;;;;0.05;78.24;98953.12;121735;1141;104344;-78
2021/01/30 01:58:33;;;;;;;59.87;28.70;;;;;;;0.07;78.62;98949.84;121724;1141;104460;-79
2021/01/30 02:01:03;;;;;;;54.30;29.00;;;;;;;0.13;78.60;98946.70;121732;1141;104339;-79
2021/01/30 02:03:33;;;;;;;50.75;26.00;;;;;;;0.20;78.29;98950.48;121647;1141;104348;-79
2021/01/30 02:06:04;;;;;;;50.60;24.50;;;;;;;0.17;78.58;98946.03;121597;1141;104426;-78
2021/01/30 02:08:35;;;;;;;49.83;24.13;;;;;;;0.12;78.85;98943.22;121645;1141;104287;-78
2021/01/30 02:11:04;;;;;;;54.80;26.90;;;;;;;0.11;78.86;98946.63;121727;1140;104348;-78
2021/01/30 02:13:36;;;;;;;57.07;26.77;;;;;;;0.10;78.45;98946.55;121748;1141;104345;-79
2021/01/30 02:16:16;;;;;;;55.67;27.93;;;;;;;0.10;79.00;98944.84;121714;1140;104341;-80
2021/01/30 02:18:56;;;;;;;50.43;24.83;;;;;;;0.12;78.88;98939.77;121708;1141;104435;-79
2021/01/30 02:22:06;;;;;;;58.57;28.73;;;;;;;0.11;78.91;98922.50;121768;1141;104344;-81
2021/01/30 02:25:07;;;;;;;57.77;26.57;;;;;;;0.08;78.68;98912.93;121753;1140;104450;-79
2021/01/30 02:27:56;;;;;;;49.60;23.83;;;;;;;0.05;78.31;98909.28;121769;1140;104340;-80
2021/01/30 02:30:41;;;;;;;55.17;26.87;;;;;;;0.02;78.31;98897.14;121747;1141;104378;-78
2021/01/30 02:33:31;;;;;;;52.30;24.23;;;;;;;0.03;79.01;98900.59;121699;1141;104439;-78
2021/01/30 02:36:27;;;;;;;55.63;26.30;;;;;;;0.04;78.46;98904.95;121726;1140;104438;-78
2021/01/30 02:39:01;;;;;;;53.80;28.47;;;;;;;0.07;78.85;98892.22;121427;1141;104380;-78
2021/01/30 02:41:34;;;;;;;53.73;27.43;;;;;;;0.09;78.85;98888.89;121754;1141;104451;-77
2021/01/30 02:44:07;;;;;;;53.57;26.70;;;;;;;0.11;79.28;98887.30;121687;1141;104455;-78
2021/01/30 02:46:41;;;;;;;53.53;27.83;;;;;;;0.13;79.12;98869.32;121693;1140;104380;-77
2021/01/30 02:49:17;;;;;;;56.15;28.12;;;;;;;0.10;78.75;98870.04;121742;1140;104343;-78
2021/01/30 02:51:51;;;;;;;51.53;26.23;;;;;;;0.14;78.99;98860.75;121733;1140;104345;-78
2021/01/30 02:54:21;;;;;;;44.87;23.13;;;;;;;0.15;78.87;98857.37;121727;1141;104560;-78
2021/01/30 02:56:54;;;;;;;50.60;26.07;;;;;;;0.11;78.98;98856.34;121724;1140;104366;-78
2021/01/30 02:59:26;;;;;;;46.25;23.62;;;;;;;0.09;79.06;98845.05;121730;1140;104342;-78
2021/01/30 03:01:55;;;;;;;48.67;24.47;;;;;;;0.07;79.04;98841.52;121721;1141;104372;-78
2021/01/30 03:04:28;;;;;;;38.40;17.97;;;;;;;0.03;78.58;98830.96;121764;1141;104382;-78
2021/01/30 03:07:16;;;;;;;52.13;25.60;;;;;;;-0.04;79.22;98814.30;121754;1140;104338;-78
2021/01/30 03:09:55;;;;;;;42.67;21.50;;;;;;;-0.07;79.47;98820.18;121716;1141;104464;-77
2021/01/30 03:12:29;;;;;;;48.75;24.30;;;;;;;-0.08;78.91;98813.27;121708;1141;104459;-78
2021/01/30 03:15:08;;;;;;;49.10;23.70;;;;;;;-0.09;79.56;98821.80;121709;1141;104340;-78
2021/01/30 03:17:38;;;;;;;55.13;26.10;;;;;;;-0.06;78.92;98815.93;121733;1141;104364;-78
2021/01/30 03:20:09;;;;;;;50.57;25.03;;;;;;;-0.03;79.21;98811.80;121755;1141;104341;-78
2021/01/30 03:22:40;;;;;;;54.60;26.13;;;;;;;0.02;79.54;98812.03;121733;1141;104455;-78
2021/01/30 03:25:15;;;;;;;48.97;24.20;;;;;;;0.03;79.35;98806.05;121733;1141;104391;-78
2021/01/30 03:27:43;;;;;;;49.20;25.73;;;;;;;0.09;79.65;98802.90;121734;1140;104489;-78
2021/01/30 03:30:14;;;;;;;45.13;23.33;;;;;;;0.07;78.77;98796.80;121705;1140;104476;-78
2021/01/30 03:32:44;;;;;;;47.00;23.90;;;;;;;0.05;79.58;98790.65;121762;1140;104439;-78
2021/01/30 03:35:13;;;;;;;41.23;20.83;;;;;;;0.07;79.33;98801.95;121716;1141;104513;-77
2021/01/30 03:37:43;;;;;;;48.33;25.13;;;;;;;0.07;79.02;98792.51;121711;1141;104389;-78
2021/01/30 03:40:15;;;;;;;48.40;23.33;;;;;;;0.05;79.51;98798.39;121709;1141;104339;-78
2021/01/30 03:42:44;;;;;;;42.17;20.63;;;;;;;0.02;78.81;98796.56;121724;1140;104432;-79
2021/01/30 03:45:18;;;;;;;46.20;23.40;;;;;;;-0.03;79.23;98790.30;121804;1141;104353;-79
2021/01/30 03:47:46;;;;;;;;;;;;;;;-0.07;78.92;98789.23;121739;1140;104557;-79
2021/01/30 03:50:16;;;;;;;50.83;26.70;;;;;;;-0.06;79.26;98788.44;121715;1141;104500;-79
2021/01/30 03:52:45;;;;;;;52.80;26.83;;;;;;;-0.04;79.74;98785.94;121692;1141;104334;-77
2021/01/30 03:55:14;;;;;;;52.50;26.33;;;;;;;-0.02;79.49;98782.64;121624;1140;104335;-78
2021/01/30 03:57:44;;;;;;;51.93;26.27;;;;;;;-0.03;79.50;98785.14;121740;1140;104439;-79
2021/01/30 04:00:16;;;;;;;53.17;25.87;;;;;;;-0.06;79.60;98780.70;121695;1141;104466;-79
2021/01/30 04:02:45;;;;;;;50.70;24.87;;;;;;;-0.07;79.04;98781.50;121693;1140;104436;-79
2021/01/30 04:05:18;;;;;;;51.77;25.00;;;;;;;-0.06;79.81;98783.28;121498;1141;104430;-79
2021/01/30 04:07:48;;;;;;;47.33;24.37;;;;;;;-0.06;79.71;98788.44;121716;1141;104432;-79
2021/01/30 04:10:20;;;;;;;46.23;23.17;;;;;;;-0.07;79.17;98791.81;121733;1140;104334;-79
2021/01/30 04:12:49;;;;;;;46.47;23.73;;;;;;;-0.08;79.54;98797.80;121517;1141;104473;-79
2021/01/30 04:15:22;;;;;;;40.87;20.30;;;;;;;-0.04;79.52;98791.97;121671;1140;104562;-81
2021/01/30 04:17:51;;;;;;;53.93;26.27;;;;;;;0.00;80.05;98793.03;121701;1141;104356;-80
2021/01/30 04:20:20;;;;;;;49.93;25.67;;;;;;;0.05;80.03;98798.39;121737;1140;104333;-79
2021/01/30 04:22:49;;;;;;;47.57;23.37;;;;;;;0.09;79.43;98792.58;121773;1140;104789;-79
2021/01/30 04:25:21;;;;;;;47.95;23.45;;;;;;;0.07;79.86;98797.66;121633;1141;104521;-79
2021/01/30 04:27:50;;;;;;;51.10;25.90;;;;;;;0.08;79.49;98799.45;121713;1140;104345;-79
2021/01/30 04:30:24;;;;;;;52.33;25.87;;;;;;;0.09;79.82;98790.88;121697;1141;104453;-79
2021/01/30 04:32:53;;;;;;;54.45;26.87;;;;;;;0.11;79.28;98797.02;121711;1141;104476;-79
2021/01/30 04:35:28;;;;;;;48.60;24.90;;;;;;;0.12;79.31;98791.03;121707;1141;104335;-81
2021/01/30 04:37:59;;;;;;;51.07;25.33;;;;;;;0.15;79.77;98790.31;121702;1141;104722;-81
2021/01/30 04:40:33;;;;;;;48.63;25.13;;;;;;;0.17;79.43;98780.94;121695;1141;104501;-80
2021/01/30 04:43:17;;;;;;;46.13;23.30;;;;;;;0.14;79.74;98788.53;121725;1141;104385;-77
2021/01/30 04:46:00;;;;;;;51.08;25.15;;;;;;;0.13;79.91;98797.09;121731;1140;104455;-78
2021/01/30 04:48:47;;;;;;;50.50;25.77;;;;;;;0.10;80.05;98794.37;121808;1140;104563;-81
2021/01/30 04:51:23;;;;;;;55.23;27.30;;;;;;;0.11;79.95;98796.11;121673;1140;104377;-79
2021/01/30 04:54:08;;;;;;;58.50;27.57;;;;;;;0.12;80.19;98798.77;121577;1141;104518;-79
2021/01/30 04:56:52;;;;;;;53.77;25.73;;;;;;;0.16;80.10;98795.55;121418;1141;104470;-80
2021/01/30 04:59:31;;;;;;;52.35;24.20;;;;;;;0.20;79.54;98790.53;121744;1141;102587;-80
2021/01/30 05:02:06;;;;;;;49.83;24.73;;;;;;;0.22;80.21;98804.38;121766;1140;104345;-80
2021/01/30 05:04:42;;;;;;;46.87;21.90;;;;;;;0.24;80.28;98810.53;121740;1141;104990;-78
2021/01/30 05:07:26;;;;;;;49.97;25.57;;;;;;;0.26;79.63;98814.93;121602;1141;104479;-79
2021/01/30 05:09:58;;;;;;;53.50;25.40;;;;;;;0.29;79.98;98809.92;121632;1141;104358;-78
2021/01/30 05:12:36;;;;;;;48.63;25.53;;;;;;;0.30;79.50;98803.97;121658;1140;104335;-77
2021/01/30 05:15:13;;;;;;;51.07;25.43;;;;;;;0.30;79.60;98819.45;121633;1141;104348;-78
2021/01/30 05:17:53;;;;;;;50.60;25.77;;;;;;;0.32;79.63;98822.10;122575;1139;104487;-78
2021/01/30 05:20:22;;;;;;;46.93;22.83;;;;;;;0.32;79.74;98820.39;121921;1140;104359;-78
2021/01/30 05:22:51;;;;;;;48.90;24.73;;;;;;;0.34;80.29;98808.48;121438;1140;104958;-78
2021/01/30 05:25:24;;;;;;;52.93;26.57;;;;;;;0.34;79.79;98816.22;121522;1140;104330;-78
2021/01/30 05:28:09;;;;;;;47.80;24.73;;;;;;;0.35;79.78;98819.67;121526;1141;104471;-78
2021/01/30 05:30:50;;;;;;;52.23;26.30;;;;;;;0.41;79.89;98812.23;121299;1141;104416;-78
2021/01/30 05:33:35;;;;;;;49.30;25.50;;;;;;;0.49;80.00;98821.22;121691;1141;104381;-79
2021/01/30 05:36:11;;;;;;;50.07;26.00;;;;;;;0.48;80.08;98821.15;121729;1141;104463;-80
2021/01/30 05:38:55;;;;;;;56.67;28.43;;;;;;;0.45;79.82;98823.58;121758;1141;104439;-80
2021/01/30 05:41:40;;;;;;;53.93;28.47;;;;;;;0.46;79.88;98815.03;121793;1141;104380;-79
2021/01/30 05:44:15;;;;;;;51.23;25.87;;;;;;;0.48;79.77;98818.56;121673;1140;104423;-79
2021/01/30 05:46:43;;;;;;;;;;;;;;;0.45;79.81;98811.58;121664;1141;104327;-78
2021/01/30 05:49:27;;;;;;;57.90;29.50;;;;;;;0.43;79.84;98809.73;121695;1141;104333;-79
2021/01/30 05:52:05;;;;;;;57.63;26.47;;;;;;;0.46;80.10;98812.45;121676;1140;104360;-78
2021/01/30 05:54:34;;;;;;;52.23;27.07;;;;;;;0.48;79.89;98810.83;121703;1141;104352;-78
2021/01/30 05:57:04;;;;;;;59.60;28.20;;;;;;;0.46;79.73;98802.13;121650;1139;104366;-77
2021/01/30 05:59:37;;;;;;;56.27;27.40;;;;;;;0.49;80.02;98807.45;122336;1140;104411;-79
2021/01/30 06:02:17;;;;;;;54.73;28.40;;;;;;;0.50;79.71;98804.06;121719;1139;104473;-77
2021/01/30 06:04:47;;;;;;;57.00;29.87;;;;;;;0.49;79.81;98797.12;121636;1141;104335;-78
2021/01/30 06:07:29;;;;;;;47.40;22.30;;;;;;;0.47;80.26;98793.59;121682;1141;104404;-78
2021/01/30 06:10:00;;;;;;;52.13;25.40;;;;;;;0.48;80.27;98795.34;121686;1141;104347;-78
2021/01/30 06:12:32;;;;;;;53.17;26.17;;;;;;;0.47;79.61;98788.43;121644;1141;104341;-79
2021/01/30 06:15:14;;;;;;;53.30;28.45;;;;;;;0.46;79.71;98794.39;121731;1140;104343;-79
2021/01/30 06:17:44;;;;;;;50.00;26.93;;;;;;;0.54;79.99;98795.64;121589;1141;104346;-77
2021/01/30 06:20:21;;;;;;;51.73;26.23;;;;;;;0.62;79.80;98794.30;121789;1141;104436;-78
2021/01/30 06:23:09;;;;;;;52.70;27.97;;;;;;;0.66;80.19;98785.89;121771;1141;104784;-79
2021/01/30 06:25:40;;;;;;;51.93;27.40;;;;;;;0.66;80.11;98785.89;121603;1141;104354;-79
2021/01/30 06:28:21;;;;;;;62.53;29.87;;;;;;;0.70;80.45;98781.75;121668;1140;104454;-78
2021/01/30 06:30:51;;;;;;;55.33;28.90;;;;;;;0.70;80.18;98772.33;121698;1141;104353;-81
2021/01/30 06:33:27;;;;;;;55.53;28.13;;;;;;;0.67;79.57;98779.02;121782;1141;104346;-80
2021/01/30 06:36:08;;;;;;;57.13;27.70;;;;;;;0.70;80.06;98772.33;121707;1141;104577;-79
2021/01/30 06:38:42;;;;;;;54.57;27.90;;;;;;;0.78;79.97;98766.63;121642;1141;104335;-78
2021/01/30 06:41:17;;;;;;;;;;;;;;;0.81;80.18;98762.51;121696;1140;104342;-78
2021/01/30 06:43:50;;;;;;;55.05;28.42;;;;;;;0.88;80.14;98767.13;121688;1141;104348;-79
2021/01/30 06:46:22;;;;;;;57.27;27.82;;;;;;;0.91;80.38;98768.09;121703;1141;104338;-78
2021/01/30 06:48:53;;;;;;;60.07;29.60;;;;;;;0.96;80.23;98770.05;121690;1141;104335;-78
2021/01/30 06:51:28;;;;;;;56.37;27.57;;;;;;;1.04;80.20;98760.98;121702;1141;104344;-79
2021/01/30 06:54:17;;;;;;;56.97;29.40;;;;;;;1.11;80.23;98763.81;121685;1141;104359;-80
2021/01/30 06:56:54;;;;;;;60.77;28.33;;;;;;;1.20;79.99;98765.13;121737;1140;104355;-79
2021/01/30 06:59:28;;;;;;;55.77;30.17;;;;;;;1.31;80.26;98765.62;121702;1141;104338;-77
2021/01/30 07:01:58;;;;;;;56.55;28.20;;;;;;;1.40;79.86;98763.44;121736;1141;104462;-78
2021/01/30 07:04:59;;;;;;;61.67;30.40;;;;;;;1.46;80.01;98751.59;121712;1141;104687;-79
2021/01/30 07:07:33;;;;;;;58.80;29.80;;;;;;;1.52;80.20;98744.98;121743;1140;104442;-78
2021/01/30 07:10:15;;;;;;;56.13;28.25;;;;;;;1.56;79.74;98748.60;121724;1141;104442;-79
2021/01/30 07:13:16;;;;;;;51.93;25.43;;;;;;;1.65;80.42;98756.72;121739;1141;104341;-77
2021/01/30 07:15:56;;;;;;;52.53;27.00;;;;;;;1.67;79.75;98749.94;121743;1141;104492;-77
2021/01/30 07:18:45;;;;;;;48.70;22.83;;;;;;;1.71;79.95;98750.94;121706;1141;104337;-78
2021/01/30 07:21:22;;;;;;;52.55;25.80;;;;;;;1.74;80.22;98758.83;121721;1141;104404;-78
2021/01/30 07:24:09;;;;;;;59.05;30.40;;;;;;;1.82;80.46;98764.33;121700;1141;104569;-77
2021/01/30 07:26:43;;;;;;;53.00;27.30;;;;;;;1.92;80.34;98764.78;121727;1141;104426;-78
2021/01/30 07:29:23;;;;;;;55.03;28.07;;;;;;;1.98;80.46;98761.59;121708;1141;104339;-77
2021/01/30 07:32:01;;;;;;;59.53;30.40;;;;;;;1.97;79.96;98749.45;121679;1140;104458;-77
2021/01/30 07:34:37;;;;;;;51.87;27.27;;;;;;;1.93;79.78;98753.63;121427;1141;104406;-78
2021/01/30 07:37:14;;;;;;;50.73;24.93;;;;;;;1.93;80.46;98755.31;121716;1141;104371;-78
2021/01/30 07:39:49;;;;;;;54.40;26.37;;;;;;;1.94;80.12;98747.61;121723;1141;104455;-78
2021/01/30 07:42:22;;;;;;;51.97;26.87;;;;;;;2.01;80.62;98737.52;121725;1141;104335;-78
2021/01/30 07:45:03;;;;;;;47.00;23.83;;;;;;;2.08;80.29;98740.43;121673;1141;104373;-78
2021/01/30 07:47:47;;;;;;;54.00;28.43;;;;;;;2.13;80.24;98744.08;121711;1140;104344;-78
2021/01/30 07:50:27;;;;;;;52.33;26.87;;;;;;;2.25;80.12;98745.42;121697;1141;104476;-77
2021/01/30 07:53:12;;;;;;;49.87;26.87;;;;;;;2.36;80.05;98746.73;121704;1141;104384;-78
2021/01/30 07:56:00;;;;;;;49.37;26.43;;;;;;;2.53;79.81;98736.17;121429;1141;104353;-78
2021/01/30 07:58:41;;;;;;;51.40;29.13;;;;;;;2.65;79.85;98734.94;121695;1141;104338;-77
2021/01/30 08:01:24;;;;;;;53.83;28.50;;;;;;;2.70;80.01;98725.63;121732;1141;104343;-79
2021/01/30 08:04:17;;;;;;;51.73;28.10;;;;;;;2.80;80.79;98728.57;121750;1141;104339;-78
2021/01/30 08:07:01;;;;;;;50.27;25.73;;;;;;;2.87;80.74;98721.09;121766;1140;104330;-79
2021/01/30 08:09:34;;;;;;;44.38;23.67;;;;;;;2.87;79.91;98725.40;121746;1141;104524;-78
2021/01/30 08:12:16;;;;;;;40.75;19.95;;;;;;;2.84;79.55;98717.52;121678;1140;104460;-76
2021/01/30 08:14:59;;;;;;;41.43;22.27;;;;;;;2.83;80.22;98711.42;121728;1140;104339;-77
2021/01/30 08:17:51;;;;;;;46.93;24.67;;;;;;;2.86;80.24;98719.31;121696;1141;104353;-77
2021/01/30 08:20:25;;;;;;;55.57;25.87;;;;;;;2.89;80.41;98739.28;121717;1140;104340;-76
2021/01/30 08:23:03;;;;;;;44.20;23.30;;;;;;;2.97;80.14;98743.03;121759;1141;104339;-76
2021/01/30 08:25:42;;;;;;;44.97;24.10;;;;;;;3.00;80.73;98740.56;121640;1140;104413;-77
2021/01/30 08:28:16;;;;;;;49.10;25.50;;;;;;;3.05;80.90;98736.45;121676;1140;104336;-80
2021/01/30 08:30:46;;;;;;;46.23;25.23;;;;;;;3.11;80.38;98735.78;121698;1141;104460;-77
2021/01/30 08:33:14;;;;;;;40.10;21.47;;;;;;;3.10;80.48;98728.85;121680;1141;104440;-78
2021/01/30 08:35:48;;;;;;;41.27;21.90;;;;;;;3.08;80.40;98714.06;121672;1141;104524;-78
2021/01/30 08:38:33;;;;;;;37.33;19.92;;;;;;;3.16;80.74;98723.86;121673;1140;104339;-78
2021/01/30 08:41:36;;;;;;;40.33;22.33;;;;;;;3.21;80.26;98722.34;121679;1141;104350;-78
2021/01/30 08:44:05;;;;;;;37.07;18.87;;;;;;;3.37;79.65;98723.77;121553;1141;104435;-79
2021/01/30 08:46:37;;;;;;;37.60;19.07;;;;;;;3.39;80.15;98716.92;121679;1140;104353;-78
2021/01/30 08:49:23;;;;;;;40.63;20.90;;;;;;;3.54;79.91;98721.78;121741;1140;104592;-78
2021/01/30 08:52:24;;;;;;;35.90;18.73;;;;;;;3.71;79.93;98713.67;121639;1141;104602;-78
2021/01/30 08:54:53;;;;;;;34.20;18.17;;;;;;;4.01;79.01;98710.38;121574;1141;104457;-78
2021/01/30 08:57:45;;;;;;;33.80;16.85;;;;;;;4.29;79.65;98705.23;121623;1141;104332;-79
2021/01/30 09:00:39;;;;;;;37.03;19.63;;;;;;;4.73;79.69;98707.44;121601;1140;104789;-78
2021/01/30 09:03:08;;;;;;;36.05;18.30;;;;;;;4.92;78.38;98687.20;121544;1140;104429;-79
2021/01/30 09:05:43;;;;;;;38.03;19.37;;;;;;;4.89;78.31;98687.11;121695;1141;104479;-78
2021/01/30 09:08:37;;;;;;;32.65;16.42;;;;;;;4.89;78.53;98687.98;121718;1140;104345;-77
2021/01/30 09:11:21;;;;;;;34.05;17.90;;;;;;;4.81;78.74;98692.08;121398;1141;104387;-79
2021/01/30 09:14:06;;;;;;;34.65;16.85;;;;;;;4.75;78.71;98660.72;121439;1140;104362;-78
2021/01/30 09:16:47;;;;;;;33.00;17.30;;;;;;;4.71;79.17;98656.28;121438;1141;104449;-79
2021/01/30 09:19:30;;;;;;;33.00;16.57;;;;;;;4.64;78.93;98660.39;121334;1141;104463;-79
2021/01/30 09:22:10;;;;;;;34.90;18.83;;;;;;;4.58;78.68;98675.80;121509;1141;104783;-78
2021/01/30 09:25:02;;;;;;;35.33;18.10;;;;;;;4.55;78.69;98663.62;121597;1140;104448;-78
2021/01/30 09:27:34;;;;;;;32.83;16.73;;;;;;;4.50;79.04;98668.67;121668;1140;104446;-78
2021/01/30 09:30:21;;;;;;;36.37;19.20;;;;;;;4.55;78.67;98670.52;121735;1141;104454;-77
2021/01/30 09:32:50;;;;;;;34.70;19.17;;;;;;;4.62;78.63;98652.55;121712;1141;104446;-77
2021/01/30 09:35:23;;;;;;;33.07;17.03;;;;;;;4.66;79.00;98643.16;121702;1141;104217;-77
2021/01/30 09:37:52;;;;;;;34.97;17.50;;;;;;;4.76;79.32;98639.97;121535;1141;104354;-78
2021/01/30 09:40:25;;;;;;;32.87;16.43;;;;;;;4.88;78.61;98638.55;121726;1141;104914;-80
2021/01/30 09:43:00;;;;;;;34.17;17.67;;;;;;;4.84;78.12;98647.99;121734;1140;104338;-78
2021/01/30 09:45:30;;;;;;;31.63;15.07;;;;;;;4.72;78.01;98627.75;121667;1140;104337;-78
2021/01/30 09:48:07;;;;;;;31.77;16.80;;;;;;;4.65;78.52;98637.06;121745;1141;104401;-79
2021/01/30 09:50:42;;;;;;;35.43;18.50;;;;;;;4.68;79.12;98637.15;121761;1141;104337;-79
2021/01/30 09:53:14;;;;;;;32.37;16.70;;;;;;;4.73;78.30;98624.30;121642;1141;104401;-78
2021/01/30 09:55:44;;;;;;;34.20;17.23;;;;;;;4.68;78.84;98623.29;121616;1141;104361;-79
2021/01/30 09:58:21;;;;;;;34.47;18.33;;;;;;;4.76;78.84;98624.38;121561;1140;104276;-78
2021/01/30 10:00:50;;;;;;;35.37;18.33;;;;;;;4.93;78.69;98630.06;121685;1140;104372;-79
2021/01/30 10:03:21;;;;;;;33.60;17.87;;;;;;;5.06;79.19;98628.67;121488;1141;104377;-79
2021/01/30 10:05:53;;;;;;;34.33;17.90;;;;;;;5.18;78.71;98623.81;121395;1141;104338;-79
2021/01/30 10:08:29;;;;;;;34.53;18.73;;;;;;;5.26;78.52;98618.81;121493;1141;104522;-79
2021/01/30 10:11:10;;;;;;;34.87;16.73;;;;;;;5.25;78.16;98606.68;121503;1141;104341;-80
2021/01/30 10:13:42;;;;;;;34.83;18.17;;;;;;;5.24;78.85;98612.70;121510;1141;104339;-80
2021/01/30 10:16:15;;;;;;;34.57;17.53;;;;;;;5.29;78.54;98607.63;121506;1141;104662;-79
2021/01/30 10:18:48;;;;;;;33.93;17.60;;;;;;;5.30;78.20;98607.67;121702;1141;104335;-79
2021/01/30 10:21:29;;;;;;;32.75;18.00;;;;;;;5.38;78.49;98595.73;121761;1141;104335;-80
2021/01/30 10:24:09;;;;;;;33.20;17.13;;;;;;;5.39;78.43;98605.31;121635;1141;104351;-81
2021/01/30 10:26:38;;;;;;;36.00;18.23;;;;;;;5.52;78.73;98619.50;121691;1141;104326;-78
2021/01/30 10:29:10;;;;;;;36.13;18.33;;;;;;;5.72;79.00;98620.02;121669;1141;104381;-78
2021/01/30 10:31:45;;;;;;;33.83;17.80;;;;;;;5.91;78.78;98615.26;121726;1140;104328;-79
2021/01/30 10:34:24;;;;;;;31.50;16.90;;;;;;;5.98;78.04;98618.91;121727;1140;104324;-80
2021/01/30 10:37:00;;;;;;;31.60;17.63;;;;;;;6.11;78.43;98608.83;121710;1140;104435;-80
2021/01/30 10:39:34;;;;;;;36.87;17.60;;;;;;;6.17;78.09;98604.59;121721;1141;104464;-79
2021/01/30 10:42:06;;;;;;;;;;;;;;;6.17;77.99;98610.70;121731;1141;104383;-79
2021/01/30 10:44:38;;;;;;;36.63;19.40;;;;;;;6.23;77.98;98609.94;121731;1140;104407;-78
2021/01/30 10:47:07;;;;;;;34.67;20.07;;;;;;;6.35;77.91;98598.92;121747;1141;104445;-79
2021/01/30 10:49:38;;;;;;;32.87;16.80;;;;;;;6.51;78.11;98597.53;121656;1141;104407;-79
2021/01/30 10:52:12;;;;;;;36.53;19.20;;;;;;;6.50;77.68;98591.45;121692;1141;104391;-79
2021/01/30 10:54:41;;;;;;;;;;;;;;;6.52;77.36;98588.88;121763;1140;104335;-79
2021/01/30 10:57:25;;;;;;;33.60;16.77;;;;;;;6.50;77.37;98583.63;121631;1141;104335;-81
2021/01/30 10:59:57;;;;;;;34.90;19.48;;;;;;;6.42;77.48;98582.56;121592;1141;104433;-81
2021/01/30 11:02:38;;;;;;;34.50;18.20;;;;;;;6.44;77.70;98588.70;121746;1140;104348;-79
2021/01/30 11:05:13;;;;;;;33.60;17.47;;;;;;;6.44;77.57;98584.36;121696;1141;104447;-80
2021/01/30 11:07:46;;;;;;;33.07;16.57;;;;;;;6.45;77.22;98575.71;121538;1141;104343;-80
2021/01/30 11:10:29;;;;;;;31.70;16.90;;;;;;;6.36;77.32;98580.72;121704;1141;104337;-79
2021/01/30 11:13:14;;;;;;;33.17;17.80;;;;;;;6.47;77.97;98581.83;121712;1141;104341;-79
2021/01/30 11:15:47;;;;;;;33.40;18.27;;;;;;;6.50;77.69;98582.73;121709;1141;104480;-79
2021/01/30 11:18:31;;;;;;;34.23;16.80;;;;;;;6.51;77.60;98579.28;121716;1140;104394;-79
2021/01/30 11:21:02;;;;;;;33.70;17.52;;;;;;;6.45;77.42;98582.63;121665;1141;104335;-79
2021/01/30 11:23:36;;;;;;;30.60;16.20;;;;;;;6.47;77.52;98586.17;121637;1141;104409;-79
2021/01/30 11:26:19;;;;;;;31.70;15.83;;;;;;;6.50;77.39;98588.84;121692;1141;104458;-80
2021/01/30 11:28:49;;;;;;;30.23;16.10;;;;;;;6.54;77.73;98585.44;121728;1140;104345;-79
2021/01/30 11:31:18;;;;;;;30.90;16.23;;;;;;;6.56;77.55;98588.07;121723;1141;104357;-79
2021/01/30 11:33:51;;;;;;;32.57;17.33;;;;;;;6.57;77.29;98579.42;121652;1141;104383;-79
2021/01/30 11:36:21;;;;;;;34.27;18.30;;;;;;;6.65;77.70;98580.45;121600;1141;104351;-80
2021/01/30 11:38:57;;;;;;;31.10;16.90;;;;;;;6.71;77.21;98577.09;121515;1141;102989;-79
2021/01/30 11:41:29;;;;;;;33.40;17.80;;;;;;;6.74;77.62;98578.03;121569;1141;104428;-80
2021/01/30 11:43:58;;;;;;;34.17;17.73;;;;;;;6.89;77.91;98582.68;121668;1141;104423;-80
2021/01/30 11:46:27;;;;;;;34.73;18.53;;;;;;;7.04;77.99;98578.60;121743;1141;104339;-80